createdAt,value
2022-10-05T00:00:57.706Z,9.70
2022-10-05T00:03:33.499Z,9.60
2022-10-05T00:06:00.564Z,9.50
2022-10-05T00:08:32.096Z,9.50
2022-10-05T00:10:59.194Z,9.60
2022-10-05T00:13:30.763Z,9.80
2022-10-05T00:16:17.710Z,10.10
2022-10-05T00:18:48.934Z,10.10
2022-10-05T00:21:26.921Z,9.90
2022-10-05T00:23:57.319Z,9.60
2022-10-05T00:26:26.678Z,9.50
2022-10-05T00:28:54.387Z,9.50
2022-10-05T00:31:23.917Z,9.50
2022-10-05T00:33:51.745Z,9.70
2022-10-05T00:36:19.170Z,9.70
2022-10-05T00:38:45.847Z,9.80
2022-10-05T00:41:46.404Z,9.90
2022-10-05T00:44:31.942Z,9.60
2022-10-05T00:47:14.925Z,9.50
2022-10-05T00:49:53.194Z,9.40
2022-10-05T00:52:48.132Z,9.20
2022-10-05T00:56:03.208Z,9.10
2022-10-05T00:59:02.105Z,9.20
2022-10-05T01:01:33.110Z,9.10
2022-10-05T01:04:29.960Z,9.10
2022-10-05T01:07:20.444Z,9.20
2022-10-05T01:10:10.593Z,9.00
2022-10-05T01:12:55.431Z,9.10
2022-10-05T01:15:41.442Z,9.10
2022-10-05T01:18:49.769Z,9.00
2022-10-05T01:21:25.872Z,8.70
2022-10-05T01:24:34.873Z,8.80
2022-10-05T01:27:07.353Z,8.90
2022-10-05T01:29:39.844Z,8.90
2022-10-05T01:32:49.798Z,9.00
2022-10-05T01:35:30.874Z,9.20
2022-10-05T01:38:12.422Z,9.20
2022-10-05T01:41:00.415Z,9.30
2022-10-05T01:43:36.061Z,9.20
2022-10-05T01:46:14.794Z,9.20
2022-10-05T01:49:06.457Z,9.00
2022-10-05T01:51:57.441Z,8.80
2022-10-05T01:54:51.950Z,8.90
2022-10-05T01:57:40.264Z,8.70
2022-10-05T02:00:10.971Z,8.70
2022-10-05T02:03:12.431Z,8.60
2022-10-05T02:06:04.359Z,8.60
2022-10-05T02:08:44.333Z,8.60
2022-10-05T02:11:13.193Z,8.70
2022-10-05T02:13:48.852Z,8.70
2022-10-05T02:16:31.473Z,8.50
2022-10-05T02:19:04.932Z,8.30
2022-10-05T02:21:34.109Z,8.50
2022-10-05T02:24:08.674Z,8.70
2022-10-05T02:26:37.401Z,8.60
2022-10-05T02:29:09.506Z,8.40
2022-10-05T02:31:58.888Z,8.30
2022-10-05T02:34:31.993Z,8.40
2022-10-05T02:37:31.625Z,8.40
2022-10-05T02:40:15.069Z,8.30
2022-10-05T02:43:03.169Z,8.30
2022-10-05T02:45:45.162Z,8.30
2022-10-05T02:48:22.642Z,8.30
2022-10-05T02:51:09.529Z,8.20
2022-10-05T02:54:14.208Z,8.00
2022-10-05T02:57:19.989Z,8.20
2022-10-05T02:59:57.198Z,8.10
2022-10-05T03:02:29.426Z,8.10
2022-10-05T03:05:20.707Z,8.00
2022-10-05T03:07:50.528Z,8.10
2022-10-05T03:10:26.624Z,8.10
2022-10-05T03:13:09.016Z,8.20
2022-10-05T03:15:41.539Z,8.30
2022-10-05T03:18:34.497Z,8.30
2022-10-05T03:21:13.960Z,8.20
2022-10-05T03:24:03.949Z,8.20
2022-10-05T03:26:39.488Z,8.00
2022-10-05T03:29:17.929Z,7.90
2022-10-05T03:31:53.207Z,7.90
2022-10-05T03:34:41.388Z,7.60
2022-10-05T03:37:22.718Z,7.70
2022-10-05T03:40:14.195Z,7.90
2022-10-05T03:43:15.493Z,8.10
2022-10-05T03:45:51.186Z,8.00
2022-10-05T03:48:28.023Z,8.00
2022-10-05T03:51:21.410Z,7.90
2022-10-05T03:53:54.814Z,7.90
2022-10-05T03:56:45.803Z,7.80
2022-10-05T03:59:30.126Z,7.70
2022-10-05T04:02:07.241Z,7.50
2022-10-05T04:04:39.713Z,7.50
2022-10-05T04:07:14.992Z,7.60
2022-10-05T04:09:46.712Z,7.60
2022-10-05T04:12:23.379Z,7.80
2022-10-05T04:14:55.891Z,7.60
2022-10-05T04:17:42.259Z,7.50
2022-10-05T04:20:48.009Z,7.50
2022-10-05T04:23:38.741Z,7.60
2022-10-05T04:26:19.924Z,7.80
2022-10-05T04:29:03.329Z,7.80
2022-10-05T04:31:47.020Z,7.80
2022-10-05T04:34:39.097Z,7.60
2022-10-05T04:37:10.940Z,7.50
2022-10-05T04:39:45.936Z,7.60
2022-10-05T04:42:28.739Z,7.60
2022-10-05T04:45:27.028Z,7.60
2022-10-05T04:48:21.408Z,7.50
2022-10-05T04:50:58.175Z,7.60
2022-10-05T04:53:45.139Z,7.50
2022-10-05T04:56:27.887Z,7.40
2022-10-05T04:59:33.108Z,7.30
2022-10-05T05:02:26.685Z,7.40
2022-10-05T05:05:02.772Z,7.50
2022-10-05T05:07:50.145Z,7.60
2022-10-05T05:10:58.753Z,7.50
2022-10-05T05:13:54.847Z,7.30
2022-10-05T05:16:27.857Z,7.40
2022-10-05T05:19:12.852Z,7.50
2022-10-05T05:21:57.988Z,7.50
2022-10-05T05:24:40.923Z,7.40
2022-10-05T05:27:33.492Z,7.60
2022-10-05T05:30:23.233Z,7.60
2022-10-05T05:33:19.185Z,7.30
2022-10-05T05:36:09.090Z,7.20
2022-10-05T05:38:58.320Z,7.20
2022-10-05T05:41:39.440Z,7.10
2022-10-05T05:44:27.713Z,7.10
2022-10-05T05:47:43.267Z,7.10
2022-10-05T05:50:18.874Z,7.20
2022-10-05T05:52:53.152Z,7.10
2022-10-05T05:55:30.117Z,7.20
2022-10-05T05:58:14.669Z,7.10
2022-10-05T06:01:05.309Z,7.10
2022-10-05T06:03:44.615Z,7.10
2022-10-05T06:06:21.731Z,7.20
2022-10-05T06:08:57.177Z,7.40
2022-10-05T06:11:48.224Z,7.60
2022-10-05T06:14:35.426Z,7.40
2022-10-05T06:17:23.295Z,7.50
2022-10-05T06:19:54.633Z,7.50
2022-10-05T06:22:38.840Z,7.80
2022-10-05T06:25:11.625Z,7.80
2022-10-05T06:28:12.891Z,7.70
2022-10-05T06:31:18.324Z,7.80
2022-10-05T06:33:58.100Z,7.90
2022-10-05T06:36:43.095Z,7.90
2022-10-05T06:39:21.415Z,8.00
2022-10-05T06:42:08.817Z,7.90
2022-10-05T06:45:24.176Z,7.90
2022-10-05T06:48:18.619Z,7.80
2022-10-05T06:51:33.689Z,7.70
2022-10-05T06:54:07.757Z,7.90
2022-10-05T06:56:37.357Z,8.10
2022-10-05T06:59:25.480Z,8.20
2022-10-05T07:02:00.271Z,8.20
2022-10-05T07:05:02.637Z,8.30
2022-10-05T07:08:04.077Z,8.40
2022-10-05T07:10:52.606Z,8.50
2022-10-05T07:13:51.473Z,8.40
2022-10-05T07:16:36.401Z,8.40
2022-10-05T07:19:32.499Z,8.50
2022-10-05T07:22:05.285Z,8.50
2022-10-05T07:24:48.872Z,8.60
2022-10-05T07:27:25.327Z,8.80
2022-10-05T07:30:06.644Z,8.80
2022-10-05T07:32:48.835Z,8.90
2022-10-05T07:36:11.360Z,8.90
2022-10-05T07:38:45.550Z,9.10
2022-10-05T07:41:31.933Z,8.80
2022-10-05T07:44:33.164Z,8.80
2022-10-05T07:47:09.811Z,8.80
2022-10-05T07:49:59.581Z,8.80
2022-10-05T07:52:45.795Z,8.90
2022-10-05T07:55:17.952Z,9.10
2022-10-05T07:58:02.926Z,9.20
2022-10-05T08:01:00.498Z,9.50
2022-10-05T08:03:46.983Z,9.50
2022-10-05T08:06:33.287Z,9.60
2022-10-05T08:09:24.779Z,9.70
2022-10-05T08:11:56.034Z,9.80
2022-10-05T08:14:33.491Z,10.00
2022-10-05T08:17:03.984Z,10.20
2022-10-05T08:19:40.551Z,10.30
2022-10-05T08:22:12.599Z,10.30
2022-10-05T08:24:45.718Z,10.50
2022-10-05T08:27:43.217Z,10.40
2022-10-05T08:30:12.827Z,10.40
2022-10-05T08:33:02.584Z,10.40
2022-10-05T08:35:44.727Z,10.60
2022-10-05T08:38:17.069Z,10.70
2022-10-05T08:41:09.275Z,10.90
2022-10-05T08:44:13.890Z,10.90
2022-10-05T08:46:52.590Z,11.00
2022-10-05T08:49:57.138Z,11.20
2022-10-05T08:52:57.817Z,11.30
2022-10-05T08:55:27.318Z,11.50
2022-10-05T08:58:21.587Z,11.90
2022-10-05T09:01:10.464Z,12.00
2022-10-05T09:03:46.096Z,12.10
2022-10-05T09:06:43.988Z,12.20
2022-10-05T09:09:30.567Z,12.30
2022-10-05T09:12:21.535Z,12.40
2022-10-05T09:15:23.815Z,12.50
2022-10-05T09:18:10.516Z,12.40
2022-10-05T09:20:53.701Z,12.60
2022-10-05T09:23:40.689Z,12.70
2022-10-05T09:26:40.303Z,12.70
2022-10-05T09:29:44.312Z,13.10
2022-10-05T09:32:35.464Z,13.50
2022-10-05T09:35:50.369Z,13.80
2022-10-05T09:38:33.698Z,14.30
2022-10-05T09:41:18.207Z,14.50
2022-10-05T09:44:03.816Z,14.40
2022-10-05T09:46:52.206Z,14.60
2022-10-05T09:49:24.632Z,15.20
2022-10-05T09:52:22.741Z,16.00
2022-10-05T09:54:56.873Z,17.00
2022-10-05T09:58:08.768Z,18.00
2022-10-05T10:01:03.688Z,18.80
2022-10-05T10:04:14.332Z,20.00
2022-10-05T10:07:30.500Z,21.70
2022-10-05T10:10:23.703Z,23.00
2022-10-05T10:12:56.921Z,24.30
2022-10-05T10:15:34.594Z,26.10
2022-10-05T10:18:13.632Z,27.30
2022-10-05T10:21:00.530Z,27.10
2022-10-05T10:23:50.838Z,27.80
2022-10-05T10:26:39.344Z,28.50
2022-10-05T10:29:45.820Z,29.90
2022-10-05T10:32:40.365Z,29.50
2022-10-05T10:35:13.650Z,29.90
2022-10-05T10:38:19.801Z,29.80
2022-10-05T10:40:49.621Z,30.30
2022-10-05T10:43:41.056Z,31.50
2022-10-05T10:46:26.268Z,31.90
2022-10-05T10:49:09.355Z,31.90
2022-10-05T10:52:08.140Z,31.70
2022-10-05T10:55:04.362Z,31.90
2022-10-05T10:58:15.855Z,31.90
2022-10-05T11:01:04.205Z,32.00
2022-10-05T11:04:21.414Z,32.50
2022-10-05T11:07:19.415Z,32.30
2022-10-05T11:10:16.278Z,32.30
2022-10-05T11:13:01.094Z,31.40
2022-10-05T11:16:01.037Z,31.80
2022-10-05T11:19:06.902Z,31.50
2022-10-05T11:21:57.211Z,31.30
2022-10-05T11:25:02.627Z,31.30
2022-10-05T11:27:47.778Z,31.40
2022-10-05T11:30:35.136Z,30.50
2022-10-05T11:33:24.307Z,30.60
2022-10-05T11:35:58.763Z,30.40
2022-10-05T11:39:04.016Z,30.80
2022-10-05T11:41:46.994Z,31.00
2022-10-05T11:44:44.827Z,31.50
2022-10-05T11:47:32.768Z,31.50
2022-10-05T11:50:18.539Z,32.40
2022-10-05T11:52:53.183Z,32.40
2022-10-05T11:55:23.813Z,31.60
2022-10-05T11:58:07.244Z,32.00
2022-10-05T12:00:46.485Z,32.30
2022-10-05T12:03:25.616Z,31.90
2022-10-05T12:06:21.887Z,32.00
2022-10-05T12:09:04.197Z,31.60
2022-10-05T12:11:43.162Z,31.60
2022-10-05T12:14:51.447Z,31.80
2022-10-05T12:17:41.212Z,32.50
2022-10-05T12:20:46.381Z,33.10
2022-10-05T12:23:13.084Z,33.90
2022-10-05T12:25:43.535Z,33.80
2022-10-05T12:28:21.556Z,33.70
2022-10-05T12:31:00.810Z,33.90
2022-10-05T12:33:40.646Z,33.60
2022-10-05T12:36:59.303Z,33.20
2022-10-05T12:39:43.832Z,32.80
2022-10-05T12:42:39.384Z,32.80
2022-10-05T12:45:16.983Z,33.20
2022-10-05T12:48:00.639Z,32.70
2022-10-05T12:50:36.776Z,31.70
2022-10-05T12:53:48.350Z,32.40
2022-10-05T12:56:44.727Z,32.50
2022-10-05T12:59:30.132Z,32.40
2022-10-05T13:01:57.003Z,32.30
2022-10-05T13:04:52.045Z,31.80
2022-10-05T13:07:38.517Z,31.60
2022-10-05T13:10:33.284Z,32.10
2022-10-05T13:13:13.122Z,32.10
2022-10-05T13:16:07.783Z,32.20
2022-10-05T13:18:51.222Z,32.40
2022-10-05T13:21:48.812Z,32.20
2022-10-05T13:24:24.734Z,31.50
2022-10-05T13:26:58.327Z,31.40
2022-10-05T13:29:42.292Z,31.90
2022-10-05T13:32:25.842Z,32.20
2022-10-05T13:35:27.386Z,32.00
2022-10-05T13:38:26.345Z,32.00
2022-10-05T13:41:08.242Z,32.40
2022-10-05T13:43:47.101Z,32.10
2022-10-05T13:46:28.461Z,30.90
2022-10-05T13:49:03.560Z,30.70
2022-10-05T13:51:39.729Z,30.40
2022-10-05T13:54:09.372Z,30.20
2022-10-05T13:56:42.888Z,30.10
2022-10-05T13:59:33.027Z,29.70
2022-10-05T14:02:09.169Z,29.80
2022-10-05T14:05:27.845Z,30.00
2022-10-05T14:07:58.361Z,29.80
2022-10-05T14:11:03.145Z,30.00
2022-10-05T14:13:52.078Z,30.00
2022-10-05T14:16:25.409Z,29.90
2022-10-05T14:19:08.890Z,29.70
2022-10-05T14:22:01.076Z,29.40
2022-10-05T14:24:45.293Z,28.90
2022-10-05T14:27:27.847Z,28.70
2022-10-05T14:30:18.446Z,28.40
2022-10-05T14:33:04.972Z,28.00
2022-10-05T14:35:44.904Z,27.60
2022-10-05T14:38:30.795Z,26.90
2022-10-05T14:41:08.352Z,26.70
2022-10-05T14:43:35.423Z,26.50
2022-10-05T14:46:25.093Z,26.40
2022-10-05T14:49:16.940Z,26.10
2022-10-05T14:51:43.786Z,25.90
2022-10-05T14:54:44.226Z,26.10
2022-10-05T14:57:33.463Z,25.90
2022-10-05T15:00:10.422Z,25.80
2022-10-05T15:02:45.320Z,25.70
2022-10-05T15:05:17.637Z,25.70
2022-10-05T15:07:48.637Z,25.50
2022-10-05T15:10:36.482Z,25.50
2022-10-05T15:13:41.436Z,25.20
2022-10-05T15:16:19.195Z,25.00
2022-10-05T15:19:02.375Z,25.00
2022-10-05T15:21:40.699Z,25.10
2022-10-05T15:24:22.634Z,24.80
2022-10-05T15:26:55.491Z,24.80
2022-10-05T15:29:47.303Z,24.70
2022-10-05T15:32:25.396Z,24.40
2022-10-05T15:35:25.967Z,24.50
2022-10-05T15:37:58.592Z,24.30
2022-10-05T15:40:39.714Z,23.70
2022-10-05T15:43:20.047Z,23.50
2022-10-05T15:45:54.286Z,23.40
2022-10-05T15:48:29.137Z,22.80
2022-10-05T15:51:02.498Z,22.50
2022-10-05T15:53:51.652Z,22.30
2022-10-05T15:56:29.834Z,22.00
2022-10-05T15:59:28.090Z,21.80
2022-10-05T16:02:00.901Z,21.60
2022-10-05T16:05:03.815Z,21.60
2022-10-05T16:07:59.663Z,21.50
2022-10-05T16:10:27.153Z,21.30
2022-10-05T16:13:09.403Z,21.30
2022-10-05T16:15:48.555Z,20.90
2022-10-05T16:18:43.391Z,20.60
2022-10-05T16:21:21.844Z,20.20
2022-10-05T16:24:10.509Z,19.80
2022-10-05T16:26:38.583Z,19.80
2022-10-05T16:29:19.573Z,19.60
2022-10-05T16:32:11.338Z,19.60
2022-10-05T16:34:40.403Z,19.50
2022-10-05T16:37:36.644Z,19.30
2022-10-05T16:40:39.141Z,19.20
2022-10-05T16:43:21.186Z,19.10
2022-10-05T16:46:22.051Z,18.90
2022-10-05T16:49:28.181Z,18.80
2022-10-05T16:52:01.519Z,18.60
2022-10-05T16:54:32.400Z,18.50
2022-10-05T16:57:21.689Z,18.40
2022-10-05T17:00:04.606Z,18.40
2022-10-05T17:02:53.025Z,18.20
2022-10-05T17:05:44.534Z,18.20
2022-10-05T17:08:36.562Z,18.10
2022-10-05T17:11:30.506Z,18.00
2022-10-05T17:14:21.144Z,18.00
2022-10-05T17:17:14.801Z,17.80
2022-10-05T17:19:49.947Z,17.80
2022-10-05T17:22:50.736Z,17.70
2022-10-05T17:25:52.488Z,17.50
2022-10-05T17:28:35.825Z,17.40
2022-10-05T17:31:21.681Z,17.30
2022-10-05T17:34:06.945Z,17.30
2022-10-05T17:36:48.163Z,17.20
2022-10-05T17:39:17.880Z,17.00
2022-10-05T17:41:45.177Z,16.90
2022-10-05T17:44:13.331Z,16.80
2022-10-05T17:46:45.573Z,16.90
2022-10-05T17:49:46.881Z,16.90
2022-10-05T17:52:46.293Z,16.70
2022-10-05T17:55:38.303Z,16.90
2022-10-05T17:58:23.985Z,16.80
2022-10-05T18:00:57.026Z,16.40
2022-10-05T18:03:45.627Z,16.40
2022-10-05T18:06:21.578Z,16.40
2022-10-05T18:08:48.363Z,16.30
2022-10-05T18:11:41.771Z,16.00
2022-10-05T18:14:19.676Z,16.00
2022-10-05T18:17:12.802Z,15.80
2022-10-05T18:19:39.549Z,15.80
2022-10-05T18:22:15.525Z,15.60
2022-10-05T18:25:29.332Z,15.50
2022-10-05T18:28:35.114Z,15.40
2022-10-05T18:31:11.006Z,15.50
2022-10-05T18:34:00.628Z,15.40
2022-10-05T18:36:38.082Z,15.20
2022-10-05T18:39:43.175Z,15.20
2022-10-05T18:42:32.046Z,15.10
2022-10-05T18:45:17.573Z,15.30
2022-10-05T18:48:07.816Z,15.30
2022-10-05T18:50:41.075Z,15.10
2022-10-05T18:53:16.004Z,15.00
2022-10-05T18:55:53.910Z,15.30
2022-10-05T18:58:22.757Z,14.90
2022-10-05T19:00:58.600Z,14.70
2022-10-05T19:03:33.905Z,14.60
2022-10-05T19:06:13.933Z,14.70
2022-10-05T19:09:18.887Z,14.70
2022-10-05T19:11:57.683Z,14.90
2022-10-05T19:14:25.134Z,14.70
2022-10-05T19:17:04.059Z,14.60
2022-10-05T19:19:44.126Z,14.50
2022-10-05T19:22:51.477Z,14.60
2022-10-05T19:25:58.693Z,14.60
2022-10-05T19:28:33.077Z,14.60
2022-10-05T19:31:12.107Z,14.50
2022-10-05T19:33:50.835Z,14.50
2022-10-05T19:36:48.908Z,14.40
2022-10-05T19:39:35.900Z,14.30
2022-10-05T19:42:10.720Z,14.10
2022-10-05T19:44:59.535Z,14.00
2022-10-05T19:48:09.522Z,13.90
2022-10-05T19:50:38.379Z,13.90
2022-10-05T19:53:15.037Z,13.90
2022-10-05T19:55:47.021Z,13.90
2022-10-05T19:58:27.011Z,13.80
2022-10-05T20:01:02.431Z,13.70
2022-10-05T20:03:31.160Z,13.80
2022-10-05T20:06:06.455Z,13.90
2022-10-05T20:08:44.723Z,13.90
2022-10-05T20:11:17.204Z,13.80
2022-10-05T20:13:52.632Z,13.90
2022-10-05T20:16:39.600Z,13.80
2022-10-05T20:19:54.858Z,13.70
2022-10-05T20:22:46.123Z,13.70
2022-10-05T20:25:18.802Z,13.70
2022-10-05T20:27:48.449Z,13.60
2022-10-05T20:30:24.613Z,13.60
2022-10-05T20:32:53.255Z,13.60
2022-10-05T20:35:25.104Z,13.50
2022-10-05T20:37:52.035Z,13.50
2022-10-05T20:40:20.016Z,13.50
2022-10-05T20:42:47.838Z,13.60
2022-10-05T20:45:14.791Z,13.60
2022-10-05T20:47:42.107Z,13.40
2022-10-05T20:50:11.145Z,13.40
2022-10-05T20:52:38.493Z,13.40
2022-10-05T20:55:07.024Z,13.40
2022-10-05T20:57:33.900Z,13.40
2022-10-05T21:00:00.770Z,13.30
2022-10-05T21:02:28.556Z,13.40
2022-10-05T21:04:55.214Z,13.50
2022-10-05T21:07:23.261Z,13.30
2022-10-05T21:09:50.870Z,13.30
2022-10-05T21:12:17.590Z,13.20
2022-10-05T21:14:44.426Z,13.10
2022-10-05T21:17:11.943Z,13.10
2022-10-05T21:19:40.319Z,13.20
2022-10-05T21:22:08.850Z,13.20
2022-10-05T21:24:40.769Z,13.10
2022-10-05T21:27:08.867Z,13.00
2022-10-05T21:29:36.927Z,12.80
2022-10-05T21:32:08.349Z,12.80
2022-10-05T21:34:35.099Z,12.80
2022-10-05T21:37:01.807Z,12.80
2022-10-05T21:39:28.477Z,12.80
2022-10-05T21:41:55.156Z,12.80
2022-10-05T21:44:22.217Z,12.90
2022-10-05T21:46:49.201Z,12.90
2022-10-05T21:49:19.657Z,12.80
2022-10-05T21:51:47.163Z,12.80
2022-10-05T21:54:18.524Z,12.70
2022-10-05T21:56:50.201Z,12.70
2022-10-05T21:59:20.301Z,12.70
2022-10-05T22:01:47.097Z,12.70
2022-10-05T22:04:14.976Z,12.50
2022-10-05T22:06:41.830Z,12.40
2022-10-05T22:09:08.629Z,12.30
2022-10-05T22:11:35.407Z,12.40
2022-10-05T22:14:02.721Z,12.40
2022-10-05T22:16:36.518Z,12.40
2022-10-05T22:19:06.822Z,12.20
2022-10-05T22:21:38.106Z,12.20
2022-10-05T22:24:05.191Z,12.30
2022-10-05T22:26:32.362Z,12.30
2022-10-05T22:28:59.087Z,12.40
2022-10-05T22:31:25.808Z,12.40
2022-10-05T22:33:52.672Z,12.40
2022-10-05T22:36:20.093Z,12.40
2022-10-05T22:38:47.580Z,12.40
2022-10-05T22:41:17.080Z,12.50
2022-10-05T22:43:44.111Z,12.40
2022-10-05T22:46:12.823Z,12.30
2022-10-05T22:48:40.148Z,12.30
2022-10-05T22:51:07.378Z,12.20
2022-10-05T22:53:34.749Z,12.20
2022-10-05T22:56:09.997Z,12.20
2022-10-05T22:58:36.885Z,12.20
2022-10-05T23:01:09.778Z,12.30
2022-10-05T23:03:36.761Z,12.20
2022-10-05T23:06:20.648Z,11.90
2022-10-05T23:08:47.901Z,11.70
2022-10-05T23:11:17.105Z,11.60
2022-10-05T23:13:44.355Z,11.50
2022-10-05T23:16:13.782Z,11.60
2022-10-05T23:18:40.960Z,11.70
2022-10-05T23:21:09.700Z,11.70
2022-10-05T23:23:42.015Z,11.80
2022-10-05T23:26:11.026Z,11.70
2022-10-05T23:28:40.064Z,11.60
2022-10-05T23:31:08.168Z,11.50
2022-10-05T23:33:35.440Z,11.50
2022-10-05T23:36:06.036Z,11.60
2022-10-05T23:38:35.091Z,11.80
2022-10-05T23:41:02.609Z,11.70
2022-10-05T23:43:29.508Z,11.80
2022-10-05T23:45:56.701Z,11.80
2022-10-05T23:48:23.450Z,11.90
2022-10-05T23:50:50.766Z,11.80
2022-10-05T23:53:18.364Z,11.80
2022-10-05T23:55:45.641Z,11.50
2022-10-05T23:58:12.510Z,11.40
